Time;durP1;ratioP1;P1;durP2;ratioP2;P2;SDS_P1;SDS_P2;PMS_P1;PMS_P2;Temp;Humidity;BMP_temperature;BMP_pressure;BME280_temperature;BME280_humidity;BME280_pressure;Samples;Min_cycle;Max_cycle;Signal;HPM_P1;HPM_P2
2022/10/09 00:01:24;;;;;;;11.88;2.85;;;9.50;99.90;;;;;;6043788;23;20018;-88
2022/10/09 00:03:52;;;;;;;11.23;2.88;;;9.50;99.90;;;;;;6043691;23;20460;-87
2022/10/09 00:06:22;;;;;;;12.88;3.40;;;9.40;99.90;;;;;;6042062;23;20014;-89
2022/10/09 00:08:47;;;;;;;13.02;2.95;;;9.40;99.90;;;;;;6043900;23;20015;-88
2022/10/09 00:11:19;;;;;;;14.05;3.00;;;11.00;99.90;;;;;;6023118;23;20038;-88
2022/10/09 00:13:47;;;;;;;12.23;2.90;;;9.50;99.90;;;;;;6051953;23;20348;-89
2022/10/09 00:16:14;;;;;;;11.13;2.90;;;9.60;99.90;;;;;;6068229;23;20022;-88
2022/10/09 00:18:41;;;;;;;13.27;2.92;;;9.40;99.90;;;;;;6047279;23;20014;-88
2022/10/09 00:21:17;;;;;;;10.27;2.83;;;9.40;99.90;;;;;;6050403;23;20018;-87
2022/10/09 00:23:43;;;;;;;12.15;3.00;;;9.40;99.90;;;;;;6042962;23;20041;-87
2022/10/09 00:26:10;;;;;;;16.92;3.42;;;9.40;99.90;;;;;;6065777;23;20448;-87
2022/10/09 00:28:37;;;;;;;14.32;2.88;;;9.40;99.90;;;;;;6017893;23;20019;-87
2022/10/09 00:31:04;;;;;;;10.38;2.67;;;9.40;99.90;;;;;;6040281;23;20069;-87
2022/10/09 00:33:30;;;;;;;9.95;2.67;;;9.30;99.90;;;;;;6065954;23;20019;-87
2022/10/09 00:35:55;;;;;;;11.15;2.75;;;9.80;99.90;;;;;;6019099;23;20028;-87
2022/10/09 00:38:21;;;;;;;9.85;2.85;;;9.60;99.90;;;;;;6040783;23;20026;-87
2022/10/09 00:40:47;;;;;;;11.40;3.00;;;9.30;99.90;;;;;;6018067;23;20022;-88
2022/10/09 00:43:17;;;;;;;9.88;2.53;;;9.40;99.90;;;;;;6017097;23;20075;-88
2022/10/09 00:45:51;;;;;;;11.32;2.90;;;9.90;99.90;;;;;;6065890;23;20011;-88
2022/10/09 00:48:18;;;;;;;15.85;3.20;;;9.30;99.90;;;;;;6065385;23;20018;-87
2022/10/09 00:50:48;;;;;;;12.50;2.90;;;9.60;99.90;;;;;;6019521;23;20512;-87
2022/10/09 00:53:19;;;;;;;13.32;3.33;;;9.30;99.90;;;;;;6041887;23;20029;-87
2022/10/09 00:55:45;;;;;;;13.32;2.70;;;9.30;99.90;;;;;;6041829;23;20029;-87
2022/10/09 00:58:11;;;;;;;14.25;2.90;;;9.60;99.90;;;;;;6040073;23;20809;-87
2022/10/09 01:00:38;;;;;;;12.10;2.88;;;9.60;99.90;;;;;;6042351;23;20093;-87
2022/10/09 01:03:03;;;;;;;8.10;2.70;;;10.20;99.90;;;;;;6065497;23;20014;-87
2022/10/09 01:05:41;;;;;;;13.00;3.33;;;9.60;99.90;;;;;;6042066;23;20511;-87
2022/10/09 01:08:23;;;;;;;11.25;2.90;;;9.20;99.90;;;;;;6039907;23;20015;-88
2022/10/09 01:11:06;;;;;;;11.75;3.17;;;9.20;99.90;;;;;;6041379;23;20258;-88
2022/10/09 01:13:45;;;;;;;11.30;3.00;;;9.20;99.90;;;;;;6043629;23;20125;-89
2022/10/09 01:16:43;;;;;;;10.63;3.00;;;9.20;99.90;;;;;;6040730;23;20542;-88
2022/10/09 01:19:43;;;;;;;9.88;2.90;;;9.20;99.90;;;;;;5918739;23;20021;-89
2022/10/09 01:22:21;;;;;;;10.73;3.00;;;9.20;99.90;;;;;;6039003;23;20018;-88
2022/10/09 01:25:05;;;;;;;13.27;3.05;;;9.10;99.90;;;;;;6041907;23;20057;-88
2022/10/09 01:27:33;;;;;;;11.57;3.13;;;9.10;99.90;;;;;;6041621;23;20017;-88
2022/10/09 01:30:06;;;;;;;10.45;3.05;;;9.10;99.90;;;;;;6062732;23;20037;-88
2022/10/09 01:32:36;;;;;;;12.65;3.10;;;9.10;99.90;;;;;;6041113;23;20019;-89
2022/10/09 01:35:04;;;;;;;12.45;3.17;;;9.10;99.90;;;;;;6041197;23;20573;-88
2022/10/09 01:37:33;;;;;;;13.18;3.28;;;9.00;99.90;;;;;;6041007;23;20026;-89
2022/10/09 01:39:59;;;;;;;11.10;2.85;;;9.00;99.90;;;;;;6043472;23;20050;-89
2022/10/09 01:42:27;;;;;;;11.70;3.00;;;9.00;99.90;;;;;;6038137;23;20531;-89
2022/10/09 01:44:53;;;;;;;10.82;3.03;;;9.00;99.90;;;;;;6042150;23;20105;-89
2022/10/09 01:47:20;;;;;;;12.02;3.47;;;9.00;99.90;;;;;;6065823;23;20407;-89
2022/10/09 01:49:59;;;;;;;12.80;3.03;;;9.30;99.90;;;;;;6066135;23;20014;-89
2022/10/09 01:52:48;;;;;;;13.52;2.95;;;9.00;99.90;;;;;;6040784;23;20171;-89
2022/10/09 01:55:38;;;;;;;13.88;2.90;;;8.90;99.90;;;;;;6066004;23;20477;-89
2022/10/09 01:58:45;;;;;;;11.73;3.20;;;8.90;99.90;;;;;;6065107;23;20018;-88
2022/10/09 02:01:19;;;;;;;9.88;3.05;;;8.90;99.90;;;;;;6041167;23;20021;-89
2022/10/09 02:03:49;;;;;;;12.82;3.20;;;8.90;99.90;;;;;;6041414;23;20019;-89
2022/10/09 02:06:16;;;;;;;12.30;3.00;;;8.80;99.90;;;;;;6042030;23;20018;-89
2022/10/09 02:08:44;;;;;;;11.48;2.90;;;8.80;99.90;;;;;;6042432;23;20078;-89
2022/10/09 02:11:14;;;;;;;9.80;3.00;;;10.10;99.90;;;;;;6040368;23;20015;-89
2022/10/09 02:13:40;;;;;;;12.82;3.05;;;9.60;99.90;;;;;;6040094;23;20068;-90
2022/10/09 02:16:21;;;;;;;11.63;3.17;;;8.80;99.90;;;;;;6042487;23;20113;-89
2022/10/09 02:18:57;;;;;;;10.50;3.17;;;8.80;99.90;;;;;;6042302;23;20360;-89
2022/10/09 02:21:30;;;;;;;11.82;3.17;;;8.80;99.90;;;;;;6040425;23;20072;-89
2022/10/09 02:23:57;;;;;;;15.05;3.53;;;8.80;99.90;;;;;;6040628;23;20022;-88
2022/10/09 02:26:24;;;;;;;12.40;3.13;;;8.80;99.90;;;;;;6041404;23;20014;-88
2022/10/09 02:28:50;;;;;;;10.80;3.20;;;8.90;99.90;;;;;;6067977;23;20339;-89
2022/10/09 02:31:30;;;;;;;11.30;2.97;;;8.70;99.90;;;;;;6067308;23;20066;-89
2022/10/09 02:33:59;;;;;;;14.50;3.20;;;8.70;99.90;;;;;;6043021;23;20022;-89
2022/10/09 02:36:26;;;;;;;13.50;3.00;;;8.70;99.90;;;;;;6043935;23;20031;-88
2022/10/09 02:38:53;;;;;;;13.85;3.22;;;10.30;99.90;;;;;;6043483;23;20019;-89
2022/10/09 02:41:20;;;;;;;11.60;3.13;;;8.70;99.90;;;;;;6043381;23;20475;-89
2022/10/09 02:43:45;;;;;;;9.77;3.13;;;8.90;99.90;;;;;;5996703;23;20022;-89
2022/10/09 02:46:11;;;;;;;10.23;3.08;;;8.60;99.90;;;;;;6044134;23;20015;-90
2022/10/09 02:48:37;;;;;;;13.52;3.38;;;8.60;99.90;;;;;;6068584;23;20010;-89
2022/10/09 02:51:03;;;;;;;12.40;3.20;;;8.60;99.90;;;;;;6043510;23;20030;-88
2022/10/09 02:53:28;;;;;;;11.40;3.03;;;8.60;99.90;;;;;;6068846;23;20081;-88
2022/10/09 02:55:54;;;;;;;10.27;3.22;;;9.30;99.90;;;;;;6025312;23;20018;-89
2022/10/09 02:58:20;;;;;;;11.13;3.25;;;9.00;99.90;;;;;;6046828;23;20018;-89
2022/10/09 03:00:49;;;;;;;11.40;3.30;;;8.50;99.90;;;;;;6022178;23;20014;-89
2022/10/09 03:03:15;;;;;;;11.55;3.33;;;8.90;99.90;;;;;;6049146;23;20014;-88
2022/10/09 03:05:41;;;;;;;11.98;3.33;;;8.50;99.90;;;;;;6068471;23;20037;-89
2022/10/09 03:08:07;;;;;;;12.98;3.28;;;8.50;99.90;;;;;;6019801;23;20065;-89
2022/10/09 03:10:32;;;;;;;10.82;3.05;;;8.50;99.90;;;;;;6017745;23;20068;-89
2022/10/09 03:12:58;;;;;;;11.13;3.20;;;8.40;99.90;;;;;;6044019;23;20015;-89
2022/10/09 03:15:24;;;;;;;11.25;3.20;;;8.40;99.90;;;;;;6041022;23;20449;-89
2022/10/09 03:17:49;;;;;;;13.25;3.30;;;9.10;99.90;;;;;;6041776;23;20057;-88
2022/10/09 03:20:15;;;;;;;13.95;3.80;;;8.80;99.90;;;;;;6041766;23;20062;-89
2022/10/09 03:22:41;;;;;;;9.27;2.85;;;8.40;99.90;;;;;;6040555;23;20098;-89
2022/10/09 03:25:07;;;;;;;14.65;3.30;;;8.60;99.90;;;;;;6043512;23;20456;-89
2022/10/09 03:27:32;;;;;;;13.30;3.53;;;8.40;99.90;;;;;;6042241;23;20018;-89
2022/10/09 03:29:58;;;;;;;10.48;3.45;;;8.40;99.90;;;;;;6066719;23;20015;-89
2022/10/09 03:32:25;;;;;;;10.32;3.45;;;8.40;99.90;;;;;;6042184;23;20520;-89
2022/10/09 03:34:51;;;;;;;10.57;3.60;;;8.40;99.90;;;;;;6043051;23;20018;-89
2022/10/09 03:37:17;;;;;;;10.82;3.42;;;8.30;99.90;;;;;;6041034;23;20085;-89
2022/10/09 03:39:43;;;;;;;11.57;4.07;;;8.40;99.90;;;;;;6067568;23;20404;-89
2022/10/09 03:42:08;;;;;;;15.20;3.63;;;8.30;99.90;;;;;;6041769;23;20018;-88
2022/10/09 03:44:34;;;;;;;11.27;3.80;;;8.40;99.90;;;;;;6043512;23;20051;-88
2022/10/09 03:47:00;;;;;;;16.10;4.07;;;9.80;99.90;;;;;;6063453;23;20344;-89
2022/10/09 03:49:25;;;;;;;12.32;4.03;;;8.20;99.90;;;;;;6040888;23;20002;-88
2022/10/09 03:51:51;;;;;;;15.27;3.97;;;8.80;99.90;;;;;;6039882;23;20014;-89
2022/10/09 03:54:16;;;;;;;11.27;3.92;;;8.20;99.90;;;;;;6016110;23;20010;-89
2022/10/09 03:56:42;;;;;;;11.68;3.95;;;8.20;99.90;;;;;;6016961;23;20010;-89
2022/10/09 03:59:08;;;;;;;12.90;4.07;;;8.40;99.90;;;;;;6015607;23;20015;-88
2022/10/09 04:01:35;;;;;;;13.63;4.28;;;8.40;99.90;;;;;;6039637;23;20014;-89
2022/10/09 04:04:01;;;;;;;14.30;4.50;;;8.20;99.90;;;;;;6063591;23;20025;-89
2022/10/09 04:06:27;;;;;;;14.70;4.72;;;8.20;99.90;;;;;;6039921;23;20025;-89
2022/10/09 04:08:53;;;;;;;10.90;4.45;;;8.20;99.90;;;;;;6063851;23;20014;-89
2022/10/09 04:11:18;;;;;;;12.82;4.63;;;8.20;99.90;;;;;;6040072;23;20069;-88
2022/10/09 04:13:44;;;;;;;12.27;4.60;;;8.20;99.90;;;;;;6063983;23;20096;-88
2022/10/09 04:16:11;;;;;;;12.82;4.90;;;8.70;99.90;;;;;;6014998;23;20014;-88
2022/10/09 04:18:38;;;;;;;11.63;4.60;;;8.10;99.90;;;;;;6039967;23;20018;-89
2022/10/09 04:21:05;;;;;;;12.35;5.25;;;8.10;99.90;;;;;;6039932;23;20091;-89
2022/10/09 04:23:31;;;;;;;14.45;5.00;;;;;;;;;;6039504;23;20090;-89
2022/10/09 04:25:58;;;;;;;14.63;5.22;;;8.10;99.90;;;;;;6062922;23;20014;-88
2022/10/09 04:28:26;;;;;;;13.25;5.28;;;8.10;99.90;;;;;;6039791;23;20021;-89
2022/10/09 04:30:51;;;;;;;13.38;5.15;;;9.00;99.90;;;;;;6039177;23;20014;-88
2022/10/09 04:33:18;;;;;;;16.42;5.95;;;8.00;99.90;;;;;;6015461;23;20033;-88
2022/10/09 04:35:45;;;;;;;14.60;5.65;;;8.60;99.90;;;;;;6039488;23;20455;-88
2022/10/09 04:38:11;;;;;;;12.88;5.38;;;8.00;99.90;;;;;;6062659;23;20029;-89
2022/10/09 04:40:37;;;;;;;15.30;5.28;;;8.00;99.90;;;;;;6064238;23;20018;-89
2022/10/09 04:43:03;;;;;;;16.30;5.60;;;8.00;99.90;;;;;;6063335;23;20348;-88
2022/10/09 04:45:28;;;;;;;16.42;5.85;;;9.40;99.90;;;;;;6038802;23;20066;-88
2022/10/09 04:47:54;;;;;;;13.68;5.75;;;7.90;99.90;;;;;;6040318;23;20025;-88
2022/10/09 04:50:20;;;;;;;12.52;5.57;;;9.20;99.90;;;;;;6011112;23;20022;-88
2022/10/09 04:52:46;;;;;;;14.65;5.60;;;8.00;99.90;;;;;;6038570;23;20074;-89
2022/10/09 04:55:11;;;;;;;12.68;5.78;;;7.90;99.90;;;;;;6041616;23;20076;-89
2022/10/09 04:57:37;;;;;;;14.95;6.60;;;7.90;99.90;;;;;;6042434;23;20374;-88
2022/10/09 05:00:04;;;;;;;13.63;6.30;;;7.90;99.90;;;;;;6018651;23;20029;-89
2022/10/09 05:02:30;;;;;;;11.27;5.80;;;7.90;99.90;;;;;;6040716;23;20045;-89
2022/10/09 05:04:56;;;;;;;14.32;6.43;;;7.90;99.90;;;;;;6041908;23;20073;-89
2022/10/09 05:07:22;;;;;;;14.80;7.07;;;7.80;99.90;;;;;;6041589;23;20089;-89
2022/10/09 05:09:48;;;;;;;16.65;6.32;;;8.00;99.90;;;;;;6041246;23;20020;-89
2022/10/09 05:12:14;;;;;;;16.75;6.53;;;7.80;99.90;;;;;;6040072;23;20018;-89
2022/10/09 05:14:39;;;;;;;15.68;6.07;;;7.80;99.90;;;;;;6041388;23;20050;-89
2022/10/09 05:17:06;;;;;;;14.35;6.03;;;7.90;99.90;;;;;;6039719;23;20054;-89
2022/10/09 05:19:32;;;;;;;14.20;6.38;;;8.30;99.90;;;;;;6040689;23;20014;-89
2022/10/09 05:21:59;;;;;;;17.73;7.10;;;9.10;99.90;;;;;;6041067;23;20574;-89
2022/10/09 05:24:25;;;;;;;12.52;6.25;;;7.70;99.90;;;;;;6043381;23;20011;-89
2022/10/09 05:26:50;;;;;;;16.10;6.75;;;7.70;99.90;;;;;;6066863;23;20448;-89
2022/10/09 05:29:16;;;;;;;13.57;6.20;;;8.00;99.90;;;;;;6018305;23;20076;-89
2022/10/09 05:31:42;;;;;;;14.50;6.60;;;7.70;99.90;;;;;;6042569;23;20037;-89
2022/10/09 05:34:08;;;;;;;16.20;7.03;;;8.70;99.90;;;;;;6065083;23;20041;-88
2022/10/09 05:36:34;;;;;;;17.10;6.78;;;7.90;99.90;;;;;;6070599;23;20184;-88
2022/10/09 05:39:02;;;;;;;16.63;6.95;;;8.70;99.90;;;;;;6072315;23;20054;-89
2022/10/09 05:41:28;;;;;;;16.40;6.47;;;7.70;99.90;;;;;;6045748;23;20018;-88
2022/10/09 05:43:58;;;;;;;14.73;6.63;;;7.70;99.90;;;;;;6006040;23;20069;-89
2022/10/09 05:46:24;;;;;;;14.85;7.05;;;7.70;99.90;;;;;;6043268;23;20041;-89
2022/10/09 05:48:56;;;;;;;14.55;6.65;;;7.70;99.90;;;;;;6041057;23;20510;-88
2022/10/09 05:51:24;;;;;;;15.07;6.47;;;7.70;99.90;;;;;;6041830;23;20011;-89
2022/10/09 05:53:50;;;;;;;16.30;6.80;;;7.70;99.90;;;;;;6040872;23;20018;-89
2022/10/09 05:56:19;;;;;;;15.18;6.50;;;8.40;99.90;;;;;;5995171;23;20014;-88
2022/10/09 05:58:56;;;;;;;14.57;6.22;;;7.80;99.90;;;;;;6042592;23;20040;-88
2022/10/09 06:01:24;;;;;;;15.20;7.00;;;7.80;99.90;;;;;;6041275;23;20019;-88
2022/10/09 06:03:52;;;;;;;16.08;5.85;;;8.60;99.90;;;;;;6041136;23;20018;-89
2022/10/09 06:06:20;;;;;;;13.38;6.47;;;7.80;99.90;;;;;;6040207;23;20069;-88
2022/10/09 06:08:47;;;;;;;14.80;6.15;;;7.80;99.90;;;;;;6041406;23;20042;-88
2022/10/09 06:11:22;;;;;;;19.77;6.50;;;7.80;99.90;;;;;;6064286;23;20507;-88
2022/10/09 06:13:48;;;;;;;14.27;5.82;;;7.90;99.90;;;;;;6040846;23;20018;-88
2022/10/09 06:16:16;;;;;;;15.20;6.45;;;7.80;99.90;;;;;;6040155;23;20053;-89
2022/10/09 06:18:45;;;;;;;13.23;6.50;;;7.80;99.90;;;;;;6041364;23;20282;-88
2022/10/09 06:21:11;;;;;;;15.55;6.20;;;8.00;99.90;;;;;;6064660;23;20014;-89
2022/10/09 06:23:36;;;;;;;14.75;6.05;;;7.80;99.90;;;;;;6039634;23;20511;-89
2022/10/09 06:26:08;;;;;;;17.20;7.07;;;8.00;99.90;;;;;;6017021;23;20401;-87
2022/10/09 06:28:35;;;;;;;13.93;6.43;;;7.90;99.90;;;;;;6040877;23;20220;-88
2022/10/09 06:31:06;;;;;;;12.77;6.45;;;8.40;99.90;;;;;;6040173;23;20025;-89
2022/10/09 06:33:35;;;;;;;18.13;9.35;;;7.90;99.90;;;;;;6062387;23;20022;-89
2022/10/09 06:36:03;;;;;;;20.05;11.10;;;9.40;99.90;;;;;;6040519;23;20345;-89
2022/10/09 06:38:30;;;;;;;22.42;11.40;;;7.90;99.90;;;;;;6061987;23;20026;-89
2022/10/09 06:41:01;;;;;;;17.73;10.68;;;8.70;99.90;;;;;;6039771;23;20105;-89
2022/10/09 06:43:26;;;;;;;20.92;10.15;;;8.00;99.90;;;;;;6041383;23;20018;-90
2022/10/09 06:45:52;;;;;;;19.63;10.05;;;8.60;99.90;;;;;;6040545;23;20014;-89
2022/10/09 06:48:18;;;;;;;18.25;9.88;;;8.10;99.90;;;;;;6041078;23;20259;-89
2022/10/09 06:50:43;;;;;;;18.52;10.13;;;8.20;99.90;;;;;;6041864;23;20051;-89
2022/10/09 06:53:09;;;;;;;21.92;11.48;;;9.00;99.90;;;;;;6041971;23;20010;-89
2022/10/09 06:55:35;;;;;;;19.52;11.45;;;8.50;99.90;;;;;;6038429;23;20390;-89
2022/10/09 06:58:00;;;;;;;21.55;12.13;;;9.60;99.90;;;;;;6041773;23;20014;-88
2022/10/09 07:00:26;;;;;;;21.45;11.85;;;8.30;99.90;;;;;;6040444;23;20029;-89
2022/10/09 07:02:52;;;;;;;19.50;12.40;;;9.80;99.90;;;;;;6041160;23;20018;-89
2022/10/09 07:05:17;;;;;;;21.05;11.95;;;9.80;99.90;;;;;;6038429;23;20049;-89
2022/10/09 07:07:43;;;;;;;22.48;12.02;;;8.50;99.90;;;;;;6062139;23;20360;-88
2022/10/09 07:10:09;;;;;;;20.25;10.50;;;9.60;99.90;;;;;;6040257;23;20018;-89
2022/10/09 07:12:36;;;;;;;18.67;10.77;;;8.60;99.90;;;;;;6041667;23;20097;-88
2022/10/09 07:15:04;;;;;;;18.48;10.05;;;8.60;99.90;;;;;;6041080;23;20014;-88
2022/10/09 07:17:30;;;;;;;18.88;9.00;;;8.70;99.90;;;;;;6042662;23;20019;-89
2022/10/09 07:19:56;;;;;;;19.45;9.68;;;8.80;99.90;;;;;;6042924;23;20026;-88
2022/10/09 07:22:21;;;;;;;15.50;7.72;;;9.70;99.90;;;;;;6042889;23;20534;-88
2022/10/09 07:24:49;;;;;;;13.50;6.82;;;8.90;99.90;;;;;;6042856;23;20089;-88
2022/10/09 07:27:15;;;;;;;14.77;6.82;;;9.10;99.90;;;;;;6066630;23;20026;-88
2022/10/09 07:29:41;;;;;;;14.38;6.45;;;9.00;99.90;;;;;;6040600;23;20412;-88
2022/10/09 07:32:06;;;;;;;12.52;6.03;;;9.00;99.90;;;;;;5995684;23;20244;-88
2022/10/09 07:34:32;;;;;;;14.40;6.18;;;9.40;99.90;;;;;;6019924;23;20010;-87
2022/10/09 07:36:58;;;;;;;12.27;5.30;;;9.10;99.90;;;;;;6018433;23;20110;-88
2022/10/09 07:39:23;;;;;;;15.05;5.47;;;9.80;99.90;;;;;;6042570;23;20467;-87
2022/10/09 07:41:51;;;;;;;13.52;5.18;;;9.20;99.90;;;;;;6018293;23;20511;-88
2022/10/09 07:44:17;;;;;;;13.23;5.25;;;9.20;99.90;;;;;;6041926;23;20041;-89
2022/10/09 07:46:43;;;;;;;12.68;5.43;;;9.30;99.90;;;;;;6065134;23;20021;-89
2022/10/09 07:49:09;;;;;;;13.13;5.38;;;9.40;99.90;;;;;;6066196;23;20010;-88
2022/10/09 07:51:35;;;;;;;11.80;4.97;;;9.60;99.90;;;;;;6064826;23;20349;-88
2022/10/09 07:54:01;;;;;;;14.52;5.15;;;9.50;99.90;;;;;;6019002;23;20348;-88
2022/10/09 07:56:32;;;;;;;12.48;5.28;;;9.60;99.90;;;;;;6065138;23;20014;-88
2022/10/09 07:59:00;;;;;;;11.27;4.75;;;9.70;99.90;;;;;;6042410;23;20097;-87
2022/10/09 08:01:28;;;;;;;10.65;4.28;;;9.80;99.90;;;;;;6041994;23;20018;-87
2022/10/09 08:03:54;;;;;;;13.32;5.03;;;10.40;99.90;;;;;;6043304;23;20479;-87
2022/10/09 08:06:20;;;;;;;12.23;4.55;;;9.90;99.90;;;;;;6066594;23;20021;-87
2022/10/09 08:08:51;;;;;;;13.52;4.70;;;10.00;99.90;;;;;;6064786;23;20113;-88
2022/10/09 08:11:17;;;;;;;11.68;4.78;;;10.00;99.90;;;;;;6043280;23;20011;-88
2022/10/09 08:13:44;;;;;;;10.50;4.60;;;10.20;99.90;;;;;;6066955;23;20025;-87
2022/10/09 08:16:10;;;;;;;13.65;5.00;;;10.20;99.90;;;;;;6043550;23;20021;-87
2022/10/09 08:18:36;;;;;;;11.93;4.78;;;9.40;99.90;;;;;;6041566;23;20345;-87
2022/10/09 08:21:10;;;;;;;11.45;4.45;;;10.40;99.90;;;;;;6039676;23;20389;-88
2022/10/09 08:23:35;;;;;;;;;;;10.40;99.90;;;;;;6066755;23;20011;-88
2022/10/09 08:26:01;;;;;;;12.85;4.40;;;10.60;99.90;;;;;;6054682;23;19955;-89
2022/10/09 08:28:27;;;;;;;13.93;4.57;;;10.50;99.90;;;;;;6049673;23;20015;-89
2022/10/09 08:30:53;;;;;;;11.38;4.70;;;10.70;99.90;;;;;;6044156;23;20018;-88
2022/10/09 08:33:20;;;;;;;12.43;4.60;;;10.70;99.90;;;;;;6034104;23;20045;-89
2022/10/09 08:35:50;;;;;;;12.95;4.63;;;10.80;99.90;;;;;;6025781;23;20202;-89
2022/10/09 08:38:17;;;;;;;11.20;4.78;;;10.90;99.90;;;;;;6040445;23;20024;-89
2022/10/09 08:41:26;;;;;;;12.13;4.32;;;11.10;99.90;;;;;;6066292;23;20093;-87
2022/10/09 08:44:02;;;;;;;9.73;3.63;;;11.10;99.90;;;;;;5932925;23;20097;-88
2022/10/09 08:46:41;;;;;;;14.27;4.25;;;11.20;99.90;;;;;;6041754;23;20018;-88
2022/10/09 08:49:21;;;;;;;11.10;3.95;;;11.30;99.90;;;;;;6041016;23;20019;-89
2022/10/09 08:51:47;;;;;;;12.00;4.22;;;11.40;99.90;;;;;;6043998;23;20471;-89
2022/10/09 08:54:33;;;;;;;11.60;4.28;;;11.40;99.90;;;;;;6019266;23;20019;-88
2022/10/09 08:57:03;;;;;;;10.93;4.00;;;11.50;99.90;;;;;;6065949;23;20021;-88
2022/10/09 08:59:29;;;;;;;10.40;4.03;;;11.60;99.90;;;;;;6065678;23;20025;-87
2022/10/09 09:02:21;;;;;;;12.18;3.75;;;11.70;99.90;;;;;;6042417;23;20085;-88
2022/10/09 09:05:26;;;;;;;11.43;4.03;;;11.80;99.90;;;;;;6040467;23;20018;-88
2022/10/09 09:08:17;;;;;;;11.30;3.95;;;11.90;99.90;;;;;;6018191;23;20022;-87
2022/10/09 09:11:08;;;;;;;18.02;3.95;;;12.00;99.90;;;;;;6042954;23;20050;-88
2022/10/09 09:13:45;;;;;;;10.23;3.38;;;12.00;99.90;;;;;;6067259;23;20097;-87
2022/10/09 09:16:53;;;;;;;11.63;4.43;;;12.10;99.90;;;;;;6041652;23;20400;-88
2022/10/09 09:19:36;;;;;;;10.13;3.00;;;12.20;99.90;;;;;;5902414;24;20020;-88
2022/10/09 09:22:02;;;;;;;11.40;3.10;;;12.30;99.90;;;;;;6030517;23;20022;-88
2022/10/09 09:24:37;;;;;;;13.25;3.20;;;12.40;99.90;;;;;;6043574;23;20487;-88
2022/10/09 09:27:11;;;;;;;10.57;3.17;;;12.50;99.90;;;;;;6042355;23;20072;-88
2022/10/09 09:30:06;;;;;;;8.95;2.53;;;12.60;99.90;;;;;;6043524;23;20018;-88
2022/10/09 09:32:32;;;;;;;9.18;2.70;;;12.60;99.90;;;;;;6018880;23;20026;-88
2022/10/09 09:35:19;;;;;;;10.80;3.05;;;12.80;99.90;;;;;;6043440;23;20018;-89
2022/10/09 09:37:45;;;;;;;9.13;2.60;;;12.80;99.90;;;;;;6041574;23;20478;-87
2022/10/09 09:40:16;;;;;;;10.52;2.50;;;12.90;99.90;;;;;;6018420;23;20022;-88
2022/10/09 09:42:42;;;;;;;10.15;2.83;;;13.00;99.90;;;;;;6064628;23;20022;-87
2022/10/09 09:45:23;;;;;;;9.75;2.63;;;13.00;99.90;;;;;;6018500;23;20015;-88
2022/10/09 09:47:57;;;;;;;8.02;2.60;;;13.10;99.90;;;;;;6041530;23;20344;-88
2022/10/09 09:50:38;;;;;;;8.65;2.50;;;13.10;99.90;;;;;;6063307;23;20520;-88
2022/10/09 09:53:26;;;;;;;11.13;2.80;;;13.20;99.90;;;;;;6039490;23;20014;-88
2022/10/09 09:55:53;;;;;;;8.65;2.65;;;13.20;99.90;;;;;;6043557;23;20021;-88
2022/10/09 09:58:20;;;;;;;9.77;2.63;;;13.30;99.90;;;;;;6042255;23;20630;-86
2022/10/09 10:01:01;;;;;;;11.15;2.72;;;13.30;99.90;;;;;;6018364;23;20025;-86
2022/10/09 10:03:29;;;;;;;10.38;2.40;;;13.40;99.90;;;;;;6017059;23;20264;-87
2022/10/09 10:05:54;;;;;;;9.40;2.65;;;13.40;99.90;;;;;;6041291;23;20108;-87
2022/10/09 10:08:29;;;;;;;9.95;2.70;;;13.50;99.90;;;;;;6064580;23;20006;-88
2022/10/09 10:11:00;;;;;;;9.73;2.20;;;13.60;99.90;;;;;;6041699;23;20109;-87
2022/10/09 10:13:47;;;;;;;7.93;2.30;;;13.60;99.90;;;;;;6043632;23;20014;-86
2022/10/09 10:16:22;;;;;;;10.23;2.25;;;13.70;99.90;;;;;;6039627;23;20014;-87
2022/10/09 10:18:48;;;;;;;10.02;2.53;;;13.70;99.90;;;;;;6038727;23;20448;-86
2022/10/09 10:21:17;;;;;;;10.68;2.53;;;13.70;99.90;;;;;;6038464;23;20019;-86
2022/10/09 10:23:59;;;;;;;8.35;2.20;;;13.80;99.90;;;;;;6067109;23;20014;-86
2022/10/09 10:26:51;;;;;;;12.02;2.58;;;13.80;99.90;;;;;;6042407;23;20018;-87
2022/10/09 10:29:28;;;;;;;10.55;2.22;;;13.90;99.90;;;;;;6059956;23;20025;-86
2022/10/09 10:32:31;;;;;;;10.48;2.65;;;14.00;99.90;;;;;;6040368;23;20011;-89
2022/10/09 10:35:19;;;;;;;9.02;2.20;;;14.00;99.90;;;;;;6064083;23;20221;-89
2022/10/09 10:37:48;;;;;;;9.73;2.75;;;14.00;99.90;;;;;;6042822;23;20034;-88
2022/10/09 10:40:18;;;;;;;6.95;2.10;;;14.10;99.90;;;;;;6043250;23;20061;-87
2022/10/09 10:43:08;;;;;;;11.52;2.58;;;14.10;99.90;;;;;;6043925;23;20015;-88
2022/10/09 10:45:38;;;;;;;7.95;2.20;;;14.10;99.90;;;;;;6066634;23;20022;-89
2022/10/09 10:48:09;;;;;;;10.50;2.38;;;14.20;99.90;;;;;;6067471;23;20022;-89
2022/10/09 10:50:43;;;;;;;7.53;2.05;;;14.20;99.90;;;;;;6044576;23;20011;-90
2022/10/09 10:53:27;;;;;;;13.38;2.58;;;14.30;99.90;;;;;;6069510;23;20072;-90
2022/10/09 10:56:02;;;;;;;9.90;2.30;;;14.30;99.90;;;;;;6044886;23;20021;-90
2022/10/09 10:58:41;;;;;;;11.73;2.63;;;14.40;99.90;;;;;;6045568;23;20085;-90
2022/10/09 11:01:10;;;;;;;10.45;2.30;;;14.50;99.90;;;;;;6044623;23;20037;-90
2022/10/09 11:04:01;;;;;;;8.88;2.80;;;14.50;99.90;;;;;;6045679;23;20453;-89
2022/10/09 11:06:53;;;;;;;16.95;2.47;;;14.50;99.90;;;;;;5982401;23;20016;-90
2022/10/09 11:09:47;;;;;;;11.52;2.45;;;14.60;99.90;;;;;;6069576;23;20078;-88
2022/10/09 11:12:41;;;;;;;8.68;2.20;;;14.70;99.90;;;;;;6045172;23;20341;-87
2022/10/09 11:15:33;;;;;;;9.07;2.08;;;14.70;99.90;;;;;;6070346;23;20014;-89
2022/10/09 11:18:32;;;;;;;10.07;2.20;;;14.80;99.90;;;;;;6046203;23;20030;-89
2022/10/09 11:21:18;;;;;;;9.07;2.25;;;14.90;99.90;;;;;;6045827;23;20018;-89
2022/10/09 11:23:50;;;;;;;10.30;2.30;;;14.90;99.90;;;;;;6045429;23;20448;-91
2022/10/09 11:26:36;;;;;;;8.93;1.98;;;14.90;99.90;;;;;;6046188;23;20010;-89
2022/10/09 11:29:12;;;;;;;9.50;2.53;;;15.00;99.90;;;;;;6064464;23;20349;-88
2022/10/09 11:31:47;;;;;;;8.35;2.25;;;15.00;99.90;;;;;;6055084;23;20069;-89
2022/10/09 11:34:21;;;;;;;11.63;2.40;;;15.10;99.90;;;;;;6048978;23;20072;-89
2022/10/09 11:36:47;;;;;;;9.68;2.55;;;15.10;99.90;;;;;;6064344;23;20082;-88
2022/10/09 11:39:24;;;;;;;9.38;2.25;;;15.10;99.90;;;;;;6054797;23;20022;-89
2022/10/09 11:41:53;;;;;;;9.23;2.10;;;15.20;99.90;;;;;;6044916;23;20026;-90
2022/10/09 11:44:38;;;;;;;8.73;2.25;;;15.30;99.90;;;;;;6044850;23;20381;-87
2022/10/09 11:47:06;;;;;;;10.25;2.40;;;15.30;99.90;;;;;;6068606;23;20475;-89
2022/10/09 11:49:57;;;;;;;8.95;2.10;;;15.40;99.90;;;;;;6068508;23;20072;-89
2022/10/09 11:52:28;;;;;;;7.60;1.70;;;15.40;99.90;;;;;;6044689;23;20012;-89
2022/10/09 11:54:53;;;;;;;8.75;2.00;;;15.50;99.90;;;;;;6068724;23;20393;-87
2022/10/09 11:57:27;;;;;;;8.48;2.00;;;15.50;99.90;;;;;;6068593;23;20069;-89
2022/10/09 12:00:05;;;;;;;8.55;1.92;;;15.50;99.90;;;;;;6044667;23;20011;-89
2022/10/09 12:02:31;;;;;;;8.85;1.80;;;15.60;99.90;;;;;;6068900;23;20389;-89
2022/10/09 12:04:56;;;;;;;9.75;2.00;;;15.60;99.90;;;;;;6044671;23;20014;-90
2022/10/09 12:07:29;;;;;;;10.35;2.28;;;15.70;99.90;;;;;;6021474;23;20584;-88
2022/10/09 12:10:08;;;;;;;8.05;1.70;;;15.70;99.90;;;;;;6068710;23;20022;-89
2022/10/09 12:12:36;;;;;;;7.65;1.92;;;15.70;99.90;;;;;;6045265;23;20353;-90
2022/10/09 12:15:46;;;;;;;8.77;1.98;;;15.70;99.90;;;;;;6044951;23;20117;-90
2022/10/09 12:18:41;;;;;;;12.43;2.17;;;15.80;99.90;;;;;;6029188;23;20015;-88
2022/10/09 12:21:22;;;;;;;8.25;2.00;;;15.80;99.90;;;;;;6018268;23;20135;-88
2022/10/09 12:23:49;;;;;;;9.20;2.20;;;15.90;99.90;;;;;;6044713;23;20041;-90
2022/10/09 12:26:16;;;;;;;10.23;2.10;;;15.90;99.90;;;;;;6044133;23;20053;-91
2022/10/09 12:28:47;;;;;;;7.90;1.73;;;15.90;99.90;;;;;;6044790;23;20318;-90
2022/10/09 12:31:32;;;;;;;6.70;1.80;;;15.90;99.90;;;;;;6067873;23;20050;-90
2022/10/09 12:34:03;;;;;;;8.23;1.95;;;15.90;99.90;;;;;;6044880;23;20073;-89
2022/10/09 12:36:30;;;;;;;6.43;1.70;;;15.90;99.90;;;;;;6044273;23;20023;-90
2022/10/09 12:38:57;;;;;;;8.82;2.30;;;15.80;99.90;;;;;;6045165;23;20105;-91
2022/10/09 12:41:27;;;;;;;8.77;2.28;;;15.90;99.90;;;;;;6068088;23;20018;-90
2022/10/09 12:43:55;;;;;;;8.65;2.22;;;15.90;99.90;;;;;;6068582;23;20014;-89
2022/10/09 12:46:47;;;;;;;10.75;2.22;;;15.90;99.90;;;;;;6066791;23;20010;-90
2022/10/09 12:49:20;;;;;;;10.15;2.47;;;15.90;99.90;;;;;;6040062;23;20081;-90
2022/10/09 12:51:53;;;;;;;;;;;15.90;99.90;;;;;;6068574;23;20014;-90
2022/10/09 12:54:20;;;;;;;8.65;2.00;;;15.90;99.90;;;;;;6044748;23;19920;-89
2022/10/09 12:56:47;;;;;;;9.98;2.30;;;15.90;99.90;;;;;;6043623;23;20018;-89
2022/10/09 12:59:13;;;;;;;11.32;2.22;;;15.90;99.90;;;;;;6044135;23;20029;-89
2022/10/09 13:01:41;;;;;;;8.45;2.20;;;16.00;99.90;;;;;;6043281;23;20018;-90
2022/10/09 13:04:24;;;;;;;10.98;2.13;;;16.00;99.90;;;;;;6067495;23;20050;-89
2022/10/09 13:06:51;;;;;;;8.63;2.38;;;16.00;99.90;;;;;;6067046;23;20070;-89